Alexander, KS

4:14 AM CDT on September 02, 2014 (GMT -0500)
Sarrada Farms 2.0 N, 2.3 E | Change Station
CLOSE
Current Station
Personal Weather Station
Location: Rozel, KS
Elevation: 2073 ft
Nearby Weather Stations

Elev 2073 ft 38.22 °N, 99.36 °W | Updated 6 seconds ago

Partly Cloudy
Partly Cloudy
64.9 °F
Feels Like 64.9 °F
N
8.9
Wind Variable Wind from NNE
Gusts 11.0 mph

Today
High -- | Low -- °F
--% Chance of Precip.
Yesterday
High -- | Low -- °F
Precip. -- in
7:08 AM 8:06 PM
Waxing Crescent, 49% visible
Pressure 29.97 in
Visibility 10.0 miles
Clouds Clear
Dew Point 64 °F
Humidity 95%
Rainfall 0.00 in
Snow Depth Not available.
UV 0.0 out of 12
Pollen 10.80 out of 12
Air Quality Not available.
Flu Activity Not available.
METAR KHYS 020855Z 04010KT 10SM CLR 18/13 A2997 RMK AO1 52003

More Conditions Fewer Conditions

Pressure 29.97 in
Visibility 10.0 miles
Clouds Clear
Dew Point 64 °F
Humidity 95%
Rainfall 0.00 in
Snow Depth Not available.
UV 0.0 out of 12
Pollen 10.80 out of 12
Air Quality Not available.
Flu Activity Not available.
METAR KHYS 020855Z 04010KT 10SM CLR 18/13 A2997 RMK AO1 52003

More Conditions Fewer Conditions

10-Day Weather Forecast

Almanac

Astronomy

Sep. 02, 2014 Rise Set
Actual Time 7:08 AM CDT 8:06 PM CDT
Civil Twilight 6:41 AM CDT 8:33 PM CDT
Nautical Twilight 6:09 AM CDT 9:05 PM CDT
Astronomical Twilight 5:35 AM CDT 9:38 PM CDT
Moon 2:49 PM CDT 12:15 AM CDT
Length of Visible Light 13h 52m
Length of Day
12h 58m
Tomorrow will be 2m 24s shorter.
Waxing Crescent, 49% of the Moon is Illuminated
Today
Waxing Crescent
Sep 2
First Quarter
Sep 8
Full
Sep 15
Last Quarter
Sep 24
New

Today's Extremes

State Highs State Lows

Community

WunderPhotos

Upload Photos

1,749,587 photos uploaded!

WunderBlogs® & News

Nearby

Snow Depth

Station Depth Elevation
No new snow has been reported.

Earthquake Activity

City Distance Mag. Time & Date
Helena, Oklahoma 151 miles 3.2 3:05 AM CDT
2014-09-02
Medford, Oklahoma 150 miles 3.3 11:58 PM CDT
2014-09-01
Enid, Oklahoma 155 miles 3.4 11:57 AM CDT
2014-08-31
Enid, Oklahoma 155 miles 3.7 2:20 AM CDT
2014-08-31
Minimum magnitude displayed is 2.5.

Coastal Water Temperatures

Place Temperature
No Stations Reporting

Nearby Weather Stations